Time;durP1;ratioP1;P1;durP2;ratioP2;P2;SDS_P1;SDS_P2;PMS_P1;PMS_P2;Temp;Humidity;BMP_temperature;BMP_pressure;BME280_temperature;BME280_humidity;BME280_pressure;Samples;Min_cycle;Max_cycle;Signal;HPM_P1;HPM_P2
2022/12/22 03:26:03;;;;;;;6.95;3.92;;;;;;;;;;7388577;19;20006;-79
2022/12/22 03:28:28;;;;;;;7.78;3.25;;;;;;;;;;7390680;19;19998;-78
2022/12/22 03:31:00;;;;;;;11.75;4.13;;;;;;;;;;7389432;19;20107;-76
2022/12/22 03:33:25;;;;;;;;;;;;;;;;;;7387810;19;20070;-77
2022/12/22 03:35:51;;;;;;;5.60;3.17;;;;;;;;;;7386967;19;20255;-77
2022/12/22 03:38:16;;;;;;;6.45;4.05;;;;;;;;;;7393581;19;19999;-78
2022/12/22 03:40:42;;;;;;;11.45;3.33;;;;;;;;;;7390060;19;19994;-79
2022/12/22 03:48:42;;;;;;;6.80;3.50;;;;;;;;;;7390411;19;20006;-78
2022/12/22 03:51:07;;;;;;;6.03;3.15;;;;;;;;;;7389922;19;20003;-80
2022/12/22 03:53:33;;;;;;;6.28;3.20;;;;;;;;;;7387723;19;20056;-79
2022/12/22 03:55:58;;;;;;;6.70;3.22;;;;;;;;;;7389137;19;19991;-78
2022/12/22 03:58:24;;;;;;;5.68;3.28;;;;;;;;;;7396714;19;20009;-78
2022/12/22 04:00:49;;;;;;;6.75;2.88;;;;;;;;;;7396426;19;20071;-78
2022/12/22 04:03:14;;;;;;;9.85;3.42;;;;;;;;;;7395448;19;19998;-81
2022/12/22 04:05:40;;;;;;;6.85;3.40;;;;;;;;;;7394809;19;19998;-76
2022/12/22 04:08:05;;;;;;;9.07;3.30;;;;;;;;;;7396583;19;20006;-78
2022/12/22 04:13:14;;;;;;;7.57;3.08;;;;;;;;;;7394651;19;20010;-77
2022/12/22 04:15:39;;;;;;;5.30;3.38;;;;;;;;;;7398047;19;20003;-77
2022/12/22 04:18:05;;;;;;;10.20;3.55;;;;;;;;;;7396062;19;20058;-77
2022/12/22 04:20:30;;;;;;;7.35;3.55;;;;;;;;;;7399990;19;20109;-79
2022/12/22 04:22:56;;;;;;;10.38;3.55;;;;;;;;;;7395587;19;20448;-78
2022/12/22 04:25:23;;;;;;;7.72;4.15;;;;;;;;;;7394122;19;20001;-79
2022/12/22 04:27:48;;;;;;;7.88;3.75;;;;;;;;;;7395991;19;19994;-78
2022/12/22 04:30:14;;;;;;;11.18;4.20;;;;;;;;;;7395844;19;19999;-78
2022/12/22 04:32:39;;;;;;;11.05;4.63;;;;;;;;;;7394525;19;20073;-78
2022/12/22 04:35:06;;;;;;;10.80;4.40;;;;;;;;;;7394770;19;19998;-79
2022/12/22 04:37:31;;;;;;;9.85;4.20;;;;;;;;;;7395911;19;20022;-78
2022/12/22 04:39:57;;;;;;;7.30;4.07;;;;;;;;;;7395488;19;20011;-79
2022/12/22 04:42:22;;;;;;;7.95;4.20;;;;;;;;;;7395495;19;19991;-77
2022/12/22 04:44:48;;;;;;;11.75;4.30;;;;;;;;;;7394356;19;20002;-78
2022/12/22 04:47:13;;;;;;;9.65;4.40;;;;;;;;;;7395591;19;19991;-79
2022/12/22 04:49:38;;;;;;;10.30;4.28;;;;;;;;;;7395437;19;19995;-77
2022/12/22 04:52:04;;;;;;;10.50;3.70;;;;;;;;;;7395762;19;19998;-77
2022/12/22 04:54:29;;;;;;;7.05;2.67;;;;;;;;;;7392304;19;20022;-77
2022/12/22 04:56:54;;;;;;;4.70;2.08;;;;;;;;;;7395548;19;20002;-77
2022/12/22 04:59:20;;;;;;;5.47;1.88;;;;;;;;;;7397368;19;19995;-78
2022/12/22 05:01:45;;;;;;;7.10;2.00;;;;;;;;;;7395545;19;19995;-78
2022/12/22 05:04:10;;;;;;;4.68;1.73;;;;;;;;;;7394113;19;19994;-77
2022/12/22 05:06:36;;;;;;;3.58;1.67;;;;;;;;;;7393992;19;20002;-78
2022/12/22 05:09:01;;;;;;;4.18;2.00;;;;;;;;;;7394705;19;19994;-80
2022/12/22 05:11:27;;;;;;;3.75;1.60;;;;;;;;;;7395011;19;20028;-77
2022/12/22 05:13:52;;;;;;;6.13;1.90;;;;;;;;;;7392150;19;19995;-78
2022/12/22 05:16:17;;;;;;;7.25;1.90;;;;;;;;;;7393752;19;20114;-79
2022/12/22 05:18:44;;;;;;;5.38;1.80;;;;;;;;;;7394592;19;20005;-78
2022/12/22 05:21:27;;;;;;;3.40;1.48;;;;;;;;;;7392414;19;19999;-78
2022/12/22 05:23:52;;;;;;;2.72;1.50;;;;;;;;;;7393973;19;19995;-78
2022/12/22 05:26:18;;;;;;;3.97;1.40;;;;;;;;;;7394143;19;19998;-79
2022/12/22 05:28:45;;;;;;;2.05;1.20;;;;;;;;;;7393927;19;20034;-77
2022/12/22 05:31:19;;;;;;;3.08;1.50;;;;;;;;;;7390862;19;20011;-77
2022/12/22 05:33:45;;;;;;;2.85;1.60;;;;;;;;;;7394428;19;20412;-78
2022/12/22 05:36:10;;;;;;;2.72;1.50;;;;;;;;;;7393496;19;20100;-80
2022/12/22 05:38:35;;;;;;;2.47;1.38;;;;;;;;;;7396801;19;20324;-81
2022/12/22 05:41:01;;;;;;;3.90;1.77;;;;;;;;;;7396994;19;20494;-79
2022/12/22 05:43:26;;;;;;;4.55;1.48;;;;;;;;;;7397293;19;19994;-80
2022/12/22 05:45:52;;;;;;;4.63;1.40;;;;;;;;;;7394797;19;20097;-79
2022/12/22 05:48:17;;;;;;;6.93;2.00;;;;;;;;;;7392996;19;19998;-80
2022/12/22 05:50:43;;;;;;;3.90;1.63;;;;;;;;;;7397719;19;19994;-78
2022/12/22 05:53:09;;;;;;;2.38;1.48;;;;;;;;;;7396370;19;19998;-79
2022/12/22 05:55:34;;;;;;;8.60;1.70;;;;;;;;;;7395780;19;20007;-81
2022/12/22 05:58:00;;;;;;;4.47;2.20;;;;;;;;;;7394962;19;20002;-83
2022/12/22 06:00:27;;;;;;;4.13;1.75;;;;;;;;;;7396864;19;20334;-78
2022/12/22 06:02:52;;;;;;;4.75;1.98;;;;;;;;;;7395545;19;20058;-81
2022/12/22 06:05:18;;;;;;;3.10;1.65;;;;;;;;;;7390994;19;20515;-78
2022/12/22 06:07:43;;;;;;;6.80;3.00;;;;;;;;;;7389188;19;19998;-79
2022/12/22 06:10:09;;;;;;;6.05;2.30;;;;;;;;;;7393085;19;20290;-80
2022/12/22 06:12:35;;;;;;;2.83;1.52;;;;;;;;;;7390159;19;19999;-79
2022/12/22 06:15:00;;;;;;;4.22;1.45;;;;;;;;;;7385850;19;20008;-77
2022/12/22 06:17:25;;;;;;;1.90;1.05;;;;;;;;;;7387729;19;20019;-79
2022/12/22 06:19:51;;;;;;;3.67;1.33;;;;;;;;;;7384592;19;20393;-78
2022/12/22 06:22:17;;;;;;;5.97;1.20;;;;;;;;;;7390598;19;19999;-79
2022/12/22 06:24:42;;;;;;;3.55;1.25;;;;;;;;;;7387141;19;20090;-79
2022/12/22 06:27:09;;;;;;;2.88;1.10;;;;;;;;;;7390456;19;20033;-80
2022/12/22 06:29:35;;;;;;;4.05;1.33;;;;;;;;;;7390102;19;20099;-79
2022/12/22 06:32:00;;;;;;;1.20;0.95;;;;;;;;;;7390632;19;20026;-81
2022/12/22 06:34:26;;;;;;;1.70;1.27;;;;;;;;;;7387916;19;20019;-79
2022/12/22 06:36:51;;;;;;;1.77;0.88;;;;;;;;;;7384033;19;20023;-77
2022/12/22 06:39:16;;;;;;;2.05;0.85;;;;;;;;;;7391353;19;19994;-80
2022/12/22 06:44:26;;;;;;;3.88;0.98;;;;;;;;;;7391369;19;20018;-79
2022/12/22 06:46:51;;;;;;;4.43;1.10;;;;;;;;;;7392048;19;19998;-79
2022/12/22 06:49:17;;;;;;;5.20;1.15;;;;;;;;;;7392431;19;19998;-78
2022/12/22 06:51:43;;;;;;;3.70;1.10;;;;;;;;;;7390346;19;19999;-77
2022/12/22 06:54:08;;;;;;;3.47;1.15;;;;;;;;;;7389091;19;19998;-76
2022/12/22 06:56:33;;;;;;;4.32;1.02;;;;;;;;;;7388828;19;20003;-78
2022/12/22 06:58:59;;;;;;;3.53;1.10;;;;;;;;;;7388882;19;19994;-76
2022/12/22 07:01:24;;;;;;;1.50;1.08;;;;;;;;;;7390662;19;19994;-78
2022/12/22 07:03:49;;;;;;;3.67;1.13;;;;;;;;;;7390929;19;20028;-77
2022/12/22 07:06:17;;;;;;;3.00;1.10;;;;;;;;;;7390240;19;20050;-77
2022/12/22 07:08:43;;;;;;;2.13;1.10;;;;;;;;;;7391814;19;20012;-77
2022/12/22 07:11:08;;;;;;;4.18;0.90;;;;;;;;;;7390307;19;20003;-76
2022/12/22 07:13:34;;;;;;;2.45;1.00;;;;;;;;;;7388748;19;20012;-77
2022/12/22 07:16:01;;;;;;;3.75;1.33;;;;;;;;;;7386780;19;20089;-76
2022/12/22 07:18:31;;;;;;;2.80;1.10;;;;;;;;;;7387188;19;20291;-77
2022/12/22 07:20:58;;;;;;;4.28;1.20;;;;;;;;;;7389732;19;19998;-76
2022/12/22 07:23:23;;;;;;;2.75;1.10;;;;;;;;;;7388896;19;20516;-78
2022/12/22 07:25:49;;;;;;;3.42;1.23;;;;;;;;;;7389651;19;20023;-76
2022/12/22 07:28:14;;;;;;;3.45;1.30;;;;;;;;;;7389108;19;20490;-77
2022/12/22 07:30:39;;;;;;;3.03;1.00;;;;;;;;;;7393794;19;20010;-77
2022/12/22 07:33:05;;;;;;;1.83;1.00;;;;;;;;;;7391289;19;20006;-77
2022/12/22 07:35:30;;;;;;;4.38;1.20;;;;;;;;;;7394058;19;20475;-78
2022/12/22 07:37:55;;;;;;;1.65;1.08;;;;;;;;;;7394195;19;20715;-77
2022/12/22 07:40:21;;;;;;;0.90;0.90;;;;;;;;;;7389308;19;20018;-77
2022/12/22 07:42:46;;;;;;;1.45;0.85;;;;;;;;;;7394195;19;19999;-77
2022/12/22 07:45:14;;;;;;;3.42;1.75;;;;;;;;;;7393185;19;20009;-77
2022/12/22 07:47:39;;;;;;;0.70;0.70;;;;;;;;;;7395931;19;20502;-77
2022/12/22 07:50:24;;;;;;;2.13;0.80;;;;;;;;;;7396595;19;20062;-77
2022/12/22 07:53:00;;;;;;;1.52;0.80;;;;;;;;;;7393632;19;20006;-75
2022/12/22 07:55:29;;;;;;;1.58;1.05;;;;;;;;;;7393885;19;20002;-77
2022/12/22 07:57:54;;;;;;;1.33;0.80;;;;;;;;;;7396193;19;19994;-77
2022/12/22 08:00:21;;;;;;;1.30;0.80;;;;;;;;;;7393463;19;19990;-76
2022/12/22 08:02:51;;;;;;;1.48;0.70;;;;;;;;;;7394025;19;19998;-77
2022/12/22 08:05:17;;;;;;;2.10;0.55;;;;;;;;;;7394920;19;20022;-76
2022/12/22 08:07:42;;;;;;;1.23;0.73;;;;;;;;;;7396223;19;19995;-75
2022/12/22 08:10:08;;;;;;;2.03;0.75;;;;;;;;;;7395690;19;19998;-75
2022/12/22 08:12:34;;;;;;;1.30;0.93;;;;;;;;;;7392527;19;20059;-75
2022/12/22 08:14:59;;;;;;;2.88;1.10;;;;;;;;;;7393444;19;20070;-76
2022/12/22 08:17:28;;;;;;;1.27;0.68;;;;;;;;;;7394633;19;19995;-75
2022/12/22 08:19:54;;;;;;;2.42;0.90;;;;;;;;;;7394884;19;20082;-76
2022/12/22 08:22:22;;;;;;;6.70;1.48;;;;;;;;;;7396736;19;19995;-75
2022/12/22 08:24:48;;;;;;;5.50;1.10;;;;;;;;;;7393892;19;19998;-75
2022/12/22 08:27:16;;;;;;;4.28;1.13;;;;;;;;;;7394300;19;20054;-75
2022/12/22 08:29:47;;;;;;;3.95;1.27;;;;;;;;;;7394754;19;20007;-75
2022/12/22 08:32:12;;;;;;;4.47;1.27;;;;;;;;;;7396740;19;20492;-75
2022/12/22 08:34:38;;;;;;;7.30;1.30;;;;;;;;;;7392163;19;19995;-74
2022/12/22 08:37:09;;;;;;;3.35;1.10;;;;;;;;;;7395360;19;20344;-75
2022/12/22 08:39:37;;;;;;;6.75;1.65;;;;;;;;;;7393304;19;20002;-75
2022/12/22 08:42:05;;;;;;;7.00;1.30;;;;;;;;;;7394769;19;20018;-75
2022/12/22 08:44:30;;;;;;;6.50;1.60;;;;;;;;;;7390965;19;20010;-75
2022/12/22 08:46:58;;;;;;;9.73;1.70;;;;;;;;;;7394194;19;20345;-74
2022/12/22 08:49:24;;;;;;;8.10;1.88;;;;;;;;;;7393482;19;20026;-75
2022/12/22 08:51:51;;;;;;;4.35;1.60;;;;;;;;;;7394937;19;20006;-75
2022/12/22 08:54:17;;;;;;;6.43;1.50;;;;;;;;;;7391083;19;19995;-75
2022/12/22 08:56:43;;;;;;;3.25;1.25;;;;;;;;;;7392224;19;19998;-76
2022/12/22 08:59:08;;;;;;;7.57;1.40;;;;;;;;;;7392028;19;20002;-76
2022/12/22 09:01:37;;;;;;;5.25;1.15;;;;;;;;;;7391732;19;20032;-77
2022/12/22 09:04:03;;;;;;;5.53;1.40;;;;;;;;;;7394311;19;20002;-75
2022/12/22 09:06:28;;;;;;;4.65;1.55;;;;;;;;;;7390189;19;20017;-75
2022/12/22 09:08:59;;;;;;;10.27;1.60;;;;;;;;;;7392862;19;20468;-75
2022/12/22 09:11:25;;;;;;;5.05;1.58;;;;;;;;;;7393854;19;20028;-76
2022/12/22 09:13:51;;;;;;;3.92;1.45;;;;;;;;;;7392763;19;19994;-75
2022/12/22 09:16:23;;;;;;;5.05;1.40;;;;;;;;;;7392961;19;20414;-76
2022/12/22 09:18:48;;;;;;;7.10;1.90;;;;;;;;;;7390249;19;20535;-75
2022/12/22 09:21:15;;;;;;;7.15;1.67;;;;;;;;;;7393032;19;20062;-76
2022/12/22 09:23:40;;;;;;;6.78;1.58;;;;;;;;;;7391219;19;20011;-76
2022/12/22 09:26:10;;;;;;;5.63;1.20;;;;;;;;;;7390697;19;19999;-76
2022/12/22 09:28:36;;;;;;;9.95;1.42;;;;;;;;;;7391498;19;19998;-75
2022/12/22 09:31:02;;;;;;;3.53;1.20;;;;;;;;;;7392681;19;19994;-75
2022/12/22 09:33:27;;;;;;;2.67;1.13;;;;;;;;;;7391479;19;20018;-76
2022/12/22 09:35:53;;;;;;;5.80;1.25;;;;;;;;;;7390469;19;20014;-76
2022/12/22 09:38:19;;;;;;;7.45;1.30;;;;;;;;;;7394090;19;20061;-75
2022/12/22 09:40:44;;;;;;;6.97;1.13;;;;;;;;;;7391292;19;19995;-76
2022/12/22 09:43:19;;;;;;;4.40;1.52;;;;;;;;;;7391381;19;19999;-76
2022/12/22 09:45:45;;;;;;;5.00;1.45;;;;;;;;;;7391930;19;20023;-75
2022/12/22 09:48:12;;;;;;;5.18;1.27;;;;;;;;;;7393946;19;19995;-75
2022/12/22 09:50:39;;;;;;;3.75;1.13;;;;;;;;;;7390098;19;20444;-75
2022/12/22 09:53:06;;;;;;;3.47;1.10;;;;;;;;;;7387804;19;20019;-74
2022/12/22 09:55:35;;;;;;;3.05;1.23;;;;;;;;;;7390868;19;20110;-75
2022/12/22 09:58:00;;;;;;;2.22;0.82;;;;;;;;;;7393504;19;19994;-74
2022/12/22 10:00:27;;;;;;;4.47;1.48;;;;;;;;;;7389906;19;20057;-75
2022/12/22 10:03:01;;;;;;;3.05;1.13;;;;;;;;;;7389205;19;20475;-75
2022/12/22 10:05:42;;;;;;;7.35;1.65;;;;;;;;;;7390595;19;20030;-74
2022/12/22 10:08:15;;;;;;;2.88;0.95;;;;;;;;;;7391432;19;20420;-75
2022/12/22 10:10:40;;;;;;;5.40;1.67;;;;;;;;;;7390616;19;19995;-75
2022/12/22 10:13:15;;;;;;;3.25;1.38;;;;;;;;;;7390050;19;20002;-74
2022/12/22 10:15:41;;;;;;;3.65;1.17;;;;;;;;;;7392146;19;20580;-74
2022/12/22 10:18:18;;;;;;;4.35;1.20;;;;;;;;;;7393122;19;20009;-74
2022/12/22 10:20:45;;;;;;;6.05;1.40;;;;;;;;;;7391355;19;20046;-75
2022/12/22 10:23:17;;;;;;;4.22;1.50;;;;;;;;;;7398298;19;19998;-76
2022/12/22 10:25:54;;;;;;;6.75;1.77;;;;;;;;;;7392763;19;20002;-75
2022/12/22 10:28:25;;;;;;;5.32;1.42;;;;;;;;;;7389700;19;20032;-75
2022/12/22 10:31:09;;;;;;;6.30;1.98;;;;;;;;;;7390678;19;19999;-75
2022/12/22 10:33:35;;;;;;;2.72;1.13;;;;;;;;;;7390602;19;20018;-74
2022/12/22 10:36:00;;;;;;;4.93;1.30;;;;;;;;;;7390925;19;20672;-73
2022/12/22 10:38:29;;;;;;;3.50;1.23;;;;;;;;;;7388957;19;20413;-74
2022/12/22 10:40:57;;;;;;;2.15;1.02;;;;;;;;;;7390584;19;19998;-75
2022/12/22 10:43:32;;;;;;;5.82;1.30;;;;;;;;;;7390292;19;20005;-75
2022/12/22 10:45:59;;;;;;;2.75;1.23;;;;;;;;;;7390993;19;20007;-77
2022/12/22 10:48:31;;;;;;;1.75;0.82;;;;;;;;;;7386091;19;20022;-76
2022/12/22 10:50:58;;;;;;;3.03;1.00;;;;;;;;;;7385266;19;20269;-75
2022/12/22 10:53:47;;;;;;;3.88;0.90;;;;;;;;;;7382883;19;20013;-75
2022/12/22 10:56:28;;;;;;;3.03;0.75;;;;;;;;;;7385382;19;20463;-75
2022/12/22 10:59:01;;;;;;;0.70;0.70;;;;;;;;;;7384634;19;20022;-75
2022/12/22 11:01:32;;;;;;;1.08;0.60;;;;;;;;;;7386335;19;20393;-75
2022/12/22 11:04:14;;;;;;;1.83;0.75;;;;;;;;;;7386266;19;20058;-75
2022/12/22 11:06:42;;;;;;;0.75;0.70;;;;;;;;;;7396080;19;20032;-76
2022/12/22 11:09:10;;;;;;;3.25;0.73;;;;;;;;;;7397174;19;20030;-74
2022/12/22 11:11:44;;;;;;;1.55;0.80;;;;;;;;;;7398499;19;20447;-75
2022/12/22 11:14:10;;;;;;;1.55;0.90;;;;;;;;;;7395082;19;20002;-75
2022/12/22 11:16:48;;;;;;;2.20;0.97;;;;;;;;;;7392795;19;19998;-74
2022/12/22 11:19:24;;;;;;;2.42;1.00;;;;;;;;;;7396548;19;20260;-75
2022/12/22 11:22:03;;;;;;;1.25;0.70;;;;;;;;;;7398471;19;20104;-75
2022/12/22 11:25:03;;;;;;;1.50;0.95;;;;;;;;;;7394187;19;20009;-75
2022/12/22 11:27:45;;;;;;;4.45;0.93;;;;;;;;;;7395842;19;19999;-75
2022/12/22 11:30:13;;;;;;;2.35;1.33;;;;;;;;;;7396602;19;19998;-75
2022/12/22 11:32:47;;;;;;;1.73;1.25;;;;;;;;;;7394046;19;20504;-75
2022/12/22 11:35:44;;;;;;;3.25;1.92;;;;;;;;;;7394733;19;20026;-74
2022/12/22 11:38:28;;;;;;;2.13;0.90;;;;;;;;;;7395937;19;20005;-75
2022/12/22 11:41:03;;;;;;;2.28;0.68;;;;;;;;;;7395765;19;19998;-75
2022/12/22 11:43:38;;;;;;;1.63;0.70;;;;;;;;;;7395905;19;20056;-74
2022/12/22 11:46:36;;;;;;;2.33;0.85;;;;;;;;;;7394999;19;20007;-74
2022/12/22 11:49:21;;;;;;;0.70;0.70;;;;;;;;;;7395189;19;19999;-74
2022/12/22 11:52:19;;;;;;;1.45;0.60;;;;;;;;;;7396776;19;20070;-75
2022/12/22 11:55:19;;;;;;;1.80;0.60;;;;;;;;;;7391283;19;20014;-74
2022/12/22 11:58:06;;;;;;;2.30;0.88;;;;;;;;;;7395131;19;19998;-75
2022/12/22 12:00:44;;;;;;;0.30;0.30;;;;;;;;;;7394076;19;20001;-74
2022/12/22 12:03:49;;;;;;;0.85;0.70;;;;;;;;;;7393196;19;20012;-74
2022/12/22 12:06:34;;;;;;;0.70;0.70;;;;;;;;;;7392438;19;20674;-74
2022/12/22 12:09:21;;;;;;;1.45;0.70;;;;;;;;;;7393512;19;20036;-74
2022/12/22 12:12:10;;;;;;;0.88;0.60;;;;;;;;;;7396802;19;20487;-76
2022/12/22 12:15:03;;;;;;;0.30;0.30;;;;;;;;;;7390466;19;19999;-75
2022/12/22 12:17:51;;;;;;;0.30;0.30;;;;;;;;;;7393492;19;20583;-75
2022/12/22 12:20:44;;;;;;;0.38;0.38;;;;;;;;;;7397109;19;20001;-74
2022/12/22 12:23:18;;;;;;;0.50;0.50;;;;;;;;;;7392877;19;20085;-75
2022/12/22 12:25:57;;;;;;;0.50;0.50;;;;;;;;;;7393936;19;20013;-74
2022/12/22 12:28:31;;;;;;;0.95;0.52;;;;;;;;;;7393168;19;20006;-72
2022/12/22 12:30:58;;;;;;;0.60;0.60;;;;;;;;;;7393807;19;20036;-72
2022/12/22 12:33:50;;;;;;;1.85;0.80;;;;;;;;;;7392395;19;19998;-72
2022/12/22 12:36:35;;;;;;;;;;;;;;;;;;7394418;19;20348;-72
2022/12/22 12:39:10;;;;;;;0.47;0.47;;;;;;;;;;7393235;19;19911;-74
2022/12/22 12:41:54;;;;;;;1.85;0.65;;;;;;;;;;7395170;19;19995;-73
2022/12/22 12:44:25;;;;;;;0.80;0.63;;;;;;;;;;7395809;19;20514;-73
2022/12/22 12:46:51;;;;;;;;;;;;;;;;;;7394228;19;19999;-72
2022/12/22 12:49:37;;;;;;;1.60;0.75;;;;;;;;;;7394181;19;19914;-73
2022/12/22 12:52:04;;;;;;;1.02;0.70;;;;;;;;;;7395829;19;20006;-72
2022/12/22 12:54:40;;;;;;;2.40;0.60;;;;;;;;;;7390463;19;19999;-74
2022/12/22 12:57:05;;;;;;;0.75;0.70;;;;;;;;;;7393845;19;19998;-73
2022/12/22 12:59:44;;;;;;;0.88;0.75;;;;;;;;;;7394543;19;20018;-73
2022/12/22 13:02:33;;;;;;;1.38;0.73;;;;;;;;;;7337157;19;1005235;-73
2022/12/22 13:05:10;;;;;;;2.53;1.00;;;;;;;;;;7390677;19;20511;-73
2022/12/22 13:08:08;;;;;;;0.95;0.90;;;;;;;;;;7394786;19;20002;-73
2022/12/22 13:10:52;;;;;;;1.38;0.90;;;;;;;;;;7392514;19;19994;-73
2022/12/22 13:13:20;;;;;;;2.60;0.80;;;;;;;;;;7392340;19;19995;-74
2022/12/22 13:15:47;;;;;;;1.35;0.95;;;;;;;;;;7388390;19;20528;-72
2022/12/22 13:18:24;;;;;;;0.93;0.80;;;;;;;;;;7382230;19;20132;-74
2022/12/22 13:21:21;;;;;;;1.48;0.80;;;;;;;;;;7388659;19;20066;-73
2022/12/22 13:23:56;;;;;;;2.38;0.70;;;;;;;;;;7387995;19;20007;-72
2022/12/22 13:26:30;;;;;;;0.95;0.88;;;;;;;;;;7389114;19;20017;-74
2022/12/22 13:29:07;;;;;;;1.00;0.77;;;;;;;;;;7385150;19;20502;-72
2022/12/22 13:31:40;;;;;;;2.63;0.80;;;;;;;;;;7388410;19;20433;-75
2022/12/22 13:34:44;;;;;;;0.93;0.90;;;;;;;;;;7385067;19;20009;-73
2022/12/22 13:37:15;;;;;;;0.60;0.60;;;;;;;;;;7384526;19;20432;-75
2022/12/22 13:39:40;;;;;;;0.55;0.55;;;;;;;;;;7385793;19;20011;-73
2022/12/22 13:42:07;;;;;;;0.70;0.70;;;;;;;;;;7387094;19;20006;-72
2022/12/22 13:44:33;;;;;;;0.65;0.65;;;;;;;;;;7387335;19;20066;-74
2022/12/22 13:47:11;;;;;;;0.98;0.75;;;;;;;;;;7383482;19;20007;-74
2022/12/22 13:49:39;;;;;;;0.88;0.80;;;;;;;;;;7389538;19;20509;-73
2022/12/22 13:52:05;;;;;;;0.90;0.90;;;;;;;;;;7387558;19;20023;-73
2022/12/22 13:54:36;;;;;;;1.05;0.75;;;;;;;;;;7386043;19;19999;-73
2022/12/22 13:57:02;;;;;;;;;;;;;;;;;;7385773;19;20006;-73
2022/12/22 13:59:32;;;;;;;0.60;0.60;;;;;;;;;;7389223;19;19974;-73
2022/12/22 14:02:00;;;;;;;0.50;0.50;;;;;;;;;;7385877;19;20491;-74
2022/12/22 14:04:26;;;;;;;3.35;0.88;;;;;;;;;;7387866;19;20313;-73
2022/12/22 14:06:53;;;;;;;1.40;0.70;;;;;;;;;;7383565;19;19999;-74
2022/12/22 14:09:20;;;;;;;0.70;0.60;;;;;;;;;;7388669;19;20058;-74
2022/12/22 14:11:59;;;;;;;2.90;0.75;;;;;;;;;;7387783;19;20401;-75
2022/12/22 14:14:35;;;;;;;0.68;0.68;;;;;;;;;;7387269;19;20026;-74
2022/12/22 14:17:02;;;;;;;1.63;0.85;;;;;;;;;;7383764;19;20010;-74
2022/12/22 14:19:36;;;;;;;4.30;0.98;;;;;;;;;;7388284;19;20010;-74
2022/12/22 14:22:10;;;;;;;0.73;0.70;;;;;;;;;;7385663;19;20007;-74
2022/12/22 14:24:53;;;;;;;0.93;0.63;;;;;;;;;;7388142;19;20014;-74
2022/12/22 14:27:36;;;;;;;0.60;0.60;;;;;;;;;;7384265;19;20015;-74
2022/12/22 14:30:06;;;;;;;1.05;0.90;;;;;;;;;;7386839;19;20468;-74
2022/12/22 14:32:40;;;;;;;1.00;0.95;;;;;;;;;;7385049;19;20031;-75
2022/12/22 14:35:20;;;;;;;0.98;0.90;;;;;;;;;;7382958;19;20496;-74
2022/12/22 14:37:54;;;;;;;1.52;1.05;;;;;;;;;;7383514;19;20014;-75
2022/12/22 14:40:32;;;;;;;1.42;0.85;;;;;;;;;;7385838;19;20069;-75
2022/12/22 14:43:01;;;;;;;1.02;0.93;;;;;;;;;;7381240;19;20011;-76
2022/12/22 14:45:26;;;;;;;2.05;1.27;;;;;;;;;;7386451;19;19999;-74
2022/12/22 14:47:53;;;;;;;1.13;1.02;;;;;;;;;;7384510;19;20031;-75
2022/12/22 14:50:23;;;;;;;1.42;1.00;;;;;;;;;;7386860;19;20332;-76
2022/12/22 14:52:51;;;;;;;1.17;0.90;;;;;;;;;;7384747;19;20006;-75
2022/12/22 14:55:27;;;;;;;3.08;1.25;;;;;;;;;;7385062;19;20500;-75
2022/12/22 14:58:14;;;;;;;1.25;0.80;;;;;;;;;;7385798;19;20468;-74
2022/12/22 15:00:48;;;;;;;2.03;1.00;;;;;;;;;;7385469;19;20007;-74
2022/12/22 15:03:33;;;;;;;1.83;1.05;;;;;;;;;;7380576;19;20031;-75
2022/12/22 15:06:20;;;;;;;1.58;1.05;;;;;;;;;;7383710;19;20010;-75
2022/12/22 15:08:45;;;;;;;1.58;0.95;;;;;;;;;;7385137;19;20403;-74
2022/12/22 15:11:17;;;;;;;2.03;1.20;;;;;;;;;;7385461;19;20003;-74
2022/12/22 15:13:45;;;;;;;1.52;1.05;;;;;;;;;;7384487;19;20013;-76
2022/12/22 15:16:18;;;;;;;4.13;1.20;;;;;;;;;;7373634;19;20015;-73
2022/12/22 15:18:44;;;;;;;3.72;1.60;;;;;;;;;;7384734;19;20014;-75
2022/12/22 15:21:16;;;;;;;1.92;1.20;;;;;;;;;;7382713;19;20003;-75
2022/12/22 15:23:41;;;;;;;;;;;;;;;;;;7385678;19;19999;-73
2022/12/22 15:26:07;;;;;;;2.97;1.48;;;;;;;;;;7381136;19;19957;-76
2022/12/22 15:28:33;;;;;;;2.53;1.50;;;;;;;;;;7385539;19;20650;-74
2022/12/22 15:31:00;;;;;;;4.00;1.60;;;;;;;;;;7382909;19;20010;-72
2022/12/22 15:33:26;;;;;;;4.13;1.75;;;;;;;;;;7382022;19;19999;-73
2022/12/22 15:35:51;;;;;;;2.80;1.42;;;;;;;;;;7382981;19;20124;-73
2022/12/22 15:38:22;;;;;;;3.88;1.70;;;;;;;;;;7382672;19;20062;-74
2022/12/22 15:40:48;;;;;;;4.38;1.90;;;;;;;;;;7385503;19;20274;-74
2022/12/22 15:43:14;;;;;;;3.35;1.65;;;;;;;;;;7382644;19;20383;-74
2022/12/22 15:45:41;;;;;;;2.38;1.50;;;;;;;;;;7384499;19;20002;-73
2022/12/22 15:48:22;;;;;;;2.33;1.50;;;;;;;;;;7383585;19;20002;-75
2022/12/22 15:50:47;;;;;;;;;;;;;;;;;;7384898;19;20001;-73
2022/12/22 15:53:18;;;;;;;1.38;1.27;;;;;;;;;;7386520;19;19914;-73
2022/12/22 15:55:52;;;;;;;6.75;2.17;;;;;;;;;;7389511;19;20001;-74
2022/12/22 15:58:20;;;;;;;3.75;2.10;;;;;;;;;;7388362;19;20371;-73
2022/12/22 16:00:45;;;;;;;2.75;1.50;;;;;;;;;;7393048;19;19995;-74
2022/12/22 16:03:11;;;;;;;3.78;1.65;;;;;;;;;;7387888;19;20371;-74
2022/12/22 16:05:38;;;;;;;4.05;1.70;;;;;;;;;;7390034;19;20006;-74
2022/12/22 16:08:08;;;;;;;1.88;1.40;;;;;;;;;;7391215;19;19999;-76
2022/12/22 16:10:34;;;;;;;2.22;1.70;;;;;;;;;;7394365;19;20013;-74
2022/12/22 16:13:02;;;;;;;2.85;1.65;;;;;;;;;;7387595;19;20348;-75
2022/12/22 16:15:32;;;;;;;2.08;1.27;;;;;;;;;;7391208;19;19999;-75
2022/12/22 16:17:59;;;;;;;2.00;1.58;;;;;;;;;;7389318;19;20010;-76
2022/12/22 16:20:28;;;;;;;1.77;1.27;;;;;;;;;;7391990;19;20006;-76
2022/12/22 16:22:53;;;;;;;2.13;1.35;;;;;;;;;;7387859;19;19998;-73
2022/12/22 16:25:23;;;;;;;2.08;1.35;;;;;;;;;;7390477;19;19994;-75
2022/12/22 16:27:49;;;;;;;2.90;1.45;;;;;;;;;;7389978;19;20076;-73
2022/12/22 16:30:18;;;;;;;1.75;1.27;;;;;;;;;;7390399;19;20007;-74
2022/12/22 16:32:44;;;;;;;2.25;1.60;;;;;;;;;;7387055;19;20006;-74
2022/12/22 16:35:10;;;;;;;3.38;1.40;;;;;;;;;;7388010;19;20009;-75
2022/12/22 16:37:35;;;;;;;2.47;1.30;;;;;;;;;;7390883;19;19999;-75
2022/12/22 16:40:01;;;;;;;2.90;1.55;;;;;;;;;;7387937;19;20392;-75
2022/12/22 16:42:27;;;;;;;3.42;1.52;;;;;;;;;;7389497;19;20121;-74
2022/12/22 16:44:53;;;;;;;2.83;1.50;;;;;;;;;;7387442;19;20349;-73
2022/12/22 16:47:25;;;;;;;3.15;1.70;;;;;;;;;;7389057;19;20544;-74
2022/12/22 16:49:51;;;;;;;2.95;1.60;;;;;;;;;;7386221;19;20018;-73
2022/12/22 16:52:20;;;;;;;1.60;1.20;;;;;;;;;;7389811;19;19997;-73
2022/12/22 16:54:47;;;;;;;2.50;1.40;;;;;;;;;;7386365;19;20384;-73
2022/12/22 16:57:12;;;;;;;4.35;1.50;;;;;;;;;;7388600;19;20026;-74
2022/12/22 16:59:37;;;;;;;3.55;2.17;;;;;;;;;;7386996;19;20096;-74
2022/12/22 17:02:03;;;;;;;2.50;1.67;;;;;;;;;;7386753;19;19995;-74
2022/12/22 17:04:30;;;;;;;2.00;1.50;;;;;;;;;;7386516;19;19995;-75
2022/12/22 17:06:58;;;;;;;2.80;1.58;;;;;;;;;;7386040;19;20468;-72
2022/12/22 17:09:42;;;;;;;5.63;2.38;;;;;;;;;;7389150;19;20073;-74
2022/12/22 17:12:19;;;;;;;3.72;1.98;;;;;;;;;;7387522;19;20010;-74
2022/12/22 17:14:45;;;;;;;4.03;2.00;;;;;;;;;;7384221;19;20099;-75
2022/12/22 17:17:21;;;;;;;4.43;2.30;;;;;;;;;;7384696;19;20024;-75
2022/12/22 17:19:47;;;;;;;4.00;2.22;;;;;;;;;;7389748;19;20425;-77
2022/12/22 17:22:26;;;;;;;5.75;3.15;;;;;;;;;;7386389;19;20030;-75
2022/12/22 17:24:54;;;;;;;5.85;3.17;;;;;;;;;;7385773;19;20022;-74
2022/12/22 17:27:24;;;;;;;5.38;2.38;;;;;;;;;;7387211;19;20082;-74
2022/12/22 17:29:51;;;;;;;4.03;2.30;;;;;;;;;;7388569;19;20006;-75
2022/12/22 17:32:18;;;;;;;4.45;2.30;;;;;;;;;;7386461;19;20019;-75
2022/12/22 17:34:43;;;;;;;17.52;13.68;;;;;;;;;;7383188;19;20003;-75
2022/12/22 17:37:14;;;;;;;5.50;3.20;;;;;;;;;;7385852;19;20144;-74
2022/12/22 17:39:51;;;;;;;4.78;2.25;;;;;;;;;;7387871;19;20494;-73
2022/12/22 17:42:19;;;;;;;7.55;2.55;;;;;;;;;;7387350;19;20006;-74
2022/12/22 17:44:45;;;;;;;3.95;2.22;;;;;;;;;;7381785;19;20381;-74
2022/12/22 17:47:15;;;;;;;5.72;3.05;;;;;;;;;;7386040;19;20082;-74
2022/12/22 17:49:42;;;;;;;7.63;3.67;;;;;;;;;;7389473;19;20006;-74
2022/12/22 17:52:26;;;;;;;6.40;3.60;;;;;;;;;;7390928;19;20002;-74
2022/12/22 17:54:52;;;;;;;6.30;3.60;;;;;;;;;;7385281;19;20004;-74
2022/12/22 17:57:25;;;;;;;8.70;3.63;;;;;;;;;;7391122;19;20066;-74
2022/12/22 17:59:50;;;;;;;7.60;3.90;;;;;;;;;;7390758;19;20400;-74
2022/12/22 18:02:21;;;;;;;8.15;4.25;;;;;;;;;;7374076;19;20014;-76
2022/12/22 18:04:47;;;;;;;7.68;3.95;;;;;;;;;;7384639;19;20024;-75
2022/12/22 18:07:16;;;;;;;11.90;5.53;;;;;;;;;;7384680;19;20073;-74
2022/12/22 18:09:44;;;;;;;9.23;4.55;;;;;;;;;;7387895;19;20024;-74
2022/12/22 18:12:19;;;;;;;5.88;3.53;;;;;;;;;;7384584;19;20504;-76
2022/12/22 18:14:45;;;;;;;10.60;4.32;;;;;;;;;;7381927;19;19995;-75
2022/12/22 18:17:21;;;;;;;9.15;4.07;;;;;;;;;;7385455;19;20006;-74
2022/12/22 18:19:46;;;;;;;7.82;3.53;;;;;;;;;;7387526;19;20014;-73
2022/12/22 18:22:30;;;;;;;9.25;4.15;;;;;;;;;;7380221;19;20503;-73
2022/12/22 18:24:55;;;;;;;8.20;3.90;;;;;;;;;;7382198;19;20508;-74
2022/12/22 18:27:21;;;;;;;7.78;3.90;;;;;;;;;;7385714;19;20015;-74
2022/12/22 18:29:47;;;;;;;8.88;3.80;;;;;;;;;;7386499;19;20006;-74
2022/12/22 18:32:13;;;;;;;9.05;4.53;;;;;;;;;;7386671;19;20010;-74
2022/12/22 18:34:39;;;;;;;9.65;4.20;;;;;;;;;;7382733;19;20003;-73
2022/12/22 18:37:10;;;;;;;10.93;5.00;;;;;;;;;;7386155;19;20014;-73